Time;durP1;ratioP1;P1;durP2;ratioP2;P2;SDS_P1;SDS_P2;PMS_P1;PMS_P2;Temp;Humidity;BMP_temperature;BMP_pressure;BME280_temperature;BME280_humidity;BME280_pressure;Samples;Min_cycle;Max_cycle;Signal;HPM_P1;HPM_P2
2022/09/21 00:00:45;;;;;;;3.42;1.80;;;21.10;59.40;;;;;;4924183;28;92683;-81
2022/09/21 00:03:11;;;;;;;3.75;1.85;;;21.10;59.40;;;;;;4923832;28;92995;-81
2022/09/21 00:05:37;;;;;;;3.72;1.88;;;21.10;59.50;;;;;;4923668;28;92033;-81
2022/09/21 00:08:04;;;;;;;2.92;1.77;;;21.10;59.50;;;;;;4921594;28;94394;-82
2022/09/21 00:10:30;;;;;;;2.83;1.90;;;21.10;59.60;;;;;;4921287;28;92690;-81
2022/09/21 00:12:57;;;;;;;2.38;1.70;;;21.10;59.40;;;;;;4923280;28;92216;-81
2022/09/21 00:15:23;;;;;;;3.20;1.80;;;21.10;59.70;;;;;;4921333;28;93201;-81
2022/09/21 00:17:51;;;;;;;3.55;2.13;;;21.10;59.60;;;;;;4922846;28;93125;-81
2022/09/21 00:20:18;;;;;;;3.55;2.20;;;21.10;59.40;;;;;;4921352;28;92133;-81
2022/09/21 00:22:46;;;;;;;4.35;2.17;;;21.00;59.40;;;;;;4922447;28;92532;-81
2022/09/21 00:25:13;;;;;;;2.42;1.80;;;21.00;59.60;;;;;;4923593;28;92037;-81
2022/09/21 00:27:39;;;;;;;2.80;1.48;;;21.00;59.50;;;;;;4924328;28;94114;-82
2022/09/21 00:30:06;;;;;;;5.38;2.38;;;21.00;59.40;;;;;;4921768;28;94238;-81
2022/09/21 00:32:34;;;;;;;3.03;1.75;;;21.00;59.40;;;;;;4923976;28;91990;-81
2022/09/21 00:35:01;;;;;;;3.45;1.90;;;21.00;59.30;;;;;;4924771;28;93785;-82
2022/09/21 00:37:27;;;;;;;3.22;1.92;;;21.00;59.40;;;;;;4922944;28;93148;-81
2022/09/21 00:39:53;;;;;;;3.67;2.13;;;21.00;59.30;;;;;;4922890;28;92008;-82
2022/09/21 00:42:23;;;;;;;1.83;1.52;;;21.00;59.50;;;;;;4924347;28;92072;-81
2022/09/21 00:44:48;;;;;;;;;;;21.00;59.40;;;;;;4922026;28;91790;-81
2022/09/21 00:47:32;;;;;;;2.72;1.60;;;21.00;59.40;;;;;;4924561;28;93141;-81
2022/09/21 00:50:03;;;;;;;3.25;2.00;;;21.00;59.40;;;;;;4922623;28;93336;-81
2022/09/21 00:52:34;;;;;;;2.50;1.85;;;21.00;59.30;;;;;;4924769;28;93359;-81
2022/09/21 00:55:04;;;;;;;2.42;1.60;;;21.00;59.30;;;;;;4913576;28;92351;-81
2022/09/21 00:57:31;;;;;;;2.72;2.05;;;21.10;59.30;;;;;;4955257;28;96247;-81
2022/09/21 01:00:00;;;;;;;2.78;1.85;;;21.00;59.20;;;;;;4921242;28;92872;-82
2022/09/21 01:02:27;;;;;;;1.67;1.58;;;21.00;59.20;;;;;;4923038;28;92134;-81
2022/09/21 01:04:53;;;;;;;4.40;2.20;;;21.00;59.10;;;;;;4921828;28;92621;-81
2022/09/21 01:07:23;;;;;;;2.25;1.65;;;21.00;59.30;;;;;;4921377;28;93144;-82
2022/09/21 01:09:53;;;;;;;2.88;2.00;;;21.00;59.10;;;;;;4922555;28;93948;-81
2022/09/21 01:12:22;;;;;;;2.55;1.83;;;21.00;59.20;;;;;;4924605;28;92411;-81
2022/09/21 01:14:51;;;;;;;2.20;1.80;;;21.00;59.10;;;;;;4922033;28;92115;-81
2022/09/21 01:17:25;;;;;;;2.30;1.67;;;21.00;59.30;;;;;;4921676;28;95068;-80
2022/09/21 01:20:26;;;;;;;3.20;1.65;;;20.90;59.10;;;;;;4952529;28;94319;-82
2022/09/21 01:23:09;;;;;;;3.45;1.70;;;20.90;59.20;;;;;;4921999;28;92668;-82
2022/09/21 01:26:10;;;;;;;2.80;1.98;;;20.90;59.20;;;;;;4953668;28;93007;-82
2022/09/21 01:28:57;;;;;;;3.58;1.80;;;20.90;59.20;;;;;;4921263;28;93604;-81
2022/09/21 01:31:30;;;;;;;3.38;1.92;;;20.90;59.20;;;;;;4923397;28;93119;-81
2022/09/21 01:34:00;;;;;;;1.88;1.52;;;20.90;59.20;;;;;;4922198;28;92071;-81
2022/09/21 01:36:29;;;;;;;3.88;1.70;;;20.90;59.00;;;;;;4923492;28;91849;-81
2022/09/21 01:39:01;;;;;;;4.05;2.00;;;20.90;59.00;;;;;;4921526;28;93211;-81
2022/09/21 01:41:29;;;;;;;2.75;1.77;;;21.00;59.10;;;;;;4954569;28;96398;-82
2022/09/21 01:44:07;;;;;;;3.00;1.80;;;20.90;59.00;;;;;;4921299;28;93557;-81
2022/09/21 01:46:34;;;;;;;2.40;1.65;;;20.90;59.00;;;;;;4922792;28;92074;-81
2022/09/21 01:49:26;;;;;;;1.95;1.60;;;20.90;58.90;;;;;;4923257;28;92875;-81
2022/09/21 01:51:58;;;;;;;2.90;1.67;;;20.90;58.90;;;;;;4923341;28;92088;-81
2022/09/21 01:54:32;;;;;;;2.17;1.70;;;20.90;58.90;;;;;;4922478;28;92075;-81
2022/09/21 01:57:08;;;;;;;1.95;1.50;;;20.90;59.00;;;;;;4922392;28;92366;-81
2022/09/21 01:59:51;;;;;;;2.15;1.60;;;20.90;59.00;;;;;;4923260;28;92280;-81
2022/09/21 02:02:49;;;;;;;2.13;1.60;;;20.90;59.00;;;;;;4921624;28;92925;-81
2022/09/21 02:05:18;;;;;;;3.78;2.30;;;20.90;58.90;;;;;;4918649;28;92186;-82
2022/09/21 02:07:45;;;;;;;3.63;2.08;;;20.80;58.90;;;;;;4920022;28;92610;-81
2022/09/21 02:10:19;;;;;;;2.95;1.67;;;20.90;59.00;;;;;;4916689;28;94163;-82
2022/09/21 02:12:46;;;;;;;2.08;1.67;;;20.80;58.90;;;;;;4919459;28;95993;-81
2022/09/21 02:15:12;;;;;;;2.53;1.73;;;20.80;59.00;;;;;;4918438;28;92201;-82
2022/09/21 02:18:07;;;;;;;3.28;1.90;;;20.80;59.10;;;;;;4920877;28;92271;-81
2022/09/21 02:20:42;;;;;;;1.80;1.55;;;20.80;59.10;;;;;;4879013;28;97107;-81
2022/09/21 02:23:29;;;;;;;2.60;1.40;;;20.90;58.90;;;;;;4899430;28;92825;-82
2022/09/21 02:25:58;;;;;;;3.22;1.77;;;20.80;58.90;;;;;;4918661;28;92428;-81
2022/09/21 02:28:48;;;;;;;2.53;1.83;;;20.80;58.80;;;;;;4917408;28;91843;-81
2022/09/21 02:31:39;;;;;;;2.65;1.70;;;20.80;58.80;;;;;;4917779;28;93243;-82
2022/09/21 02:34:24;;;;;;;2.42;1.63;;;20.90;58.80;;;;;;4918742;28;92601;-82
2022/09/21 02:37:18;;;;;;;2.30;1.60;;;20.90;58.70;;;;;;4917481;28;93324;-81
2022/09/21 02:39:44;;;;;;;3.22;1.90;;;20.80;58.80;;;;;;4921603;28;92519;-82
2022/09/21 02:42:15;;;;;;;3.13;1.70;;;20.80;58.70;;;;;;4918537;28;93367;-81
2022/09/21 02:44:51;;;;;;;2.97;1.90;;;20.80;58.80;;;;;;4911201;28;92967;-81
2022/09/21 02:47:48;;;;;;;1.73;1.42;;;20.80;58.80;;;;;;4918606;28;92254;-82
2022/09/21 02:50:20;;;;;;;3.40;1.85;;;20.80;58.70;;;;;;4859960;28;92566;-82
2022/09/21 02:52:45;;;;;;;2.30;1.73;;;20.80;58.80;;;;;;4860690;28;93693;-81
2022/09/21 02:55:13;;;;;;;3.65;1.80;;;20.80;58.90;;;;;;4861141;28;94129;-81
2022/09/21 02:57:40;;;;;;;2.10;1.70;;;20.80;58.90;;;;;;4853460;28;92765;-82
2022/09/21 03:00:06;;;;;;;3.00;1.80;;;20.80;59.00;;;;;;4861885;28;92256;-82
2022/09/21 03:02:37;;;;;;;2.22;1.60;;;20.80;58.80;;;;;;4860851;28;93587;-82
2022/09/21 03:05:04;;;;;;;2.58;1.98;;;20.80;58.80;;;;;;4859022;28;94431;-81
2022/09/21 03:07:29;;;;;;;3.08;1.83;;;20.80;58.90;;;;;;4864349;28;92170;-81
2022/09/21 03:09:55;;;;;;;2.85;1.58;;;20.80;58.80;;;;;;4862198;28;92401;-82
2022/09/21 03:12:21;;;;;;;1.98;1.73;;;20.80;58.90;;;;;;4863355;28;92752;-81
2022/09/21 03:14:46;;;;;;;3.53;2.05;;;20.80;58.80;;;;;;4860634;28;92712;-81
2022/09/21 03:17:12;;;;;;;1.90;1.63;;;20.80;58.70;;;;;;4862429;28;92319;-81
2022/09/21 03:19:37;;;;;;;1.88;1.60;;;20.80;58.60;;;;;;4862517;28;91599;-81
2022/09/21 03:22:03;;;;;;;3.20;1.77;;;20.80;58.60;;;;;;4864172;28;92963;-81
2022/09/21 03:24:47;;;;;;;1.70;1.50;;;20.80;58.80;;;;;;4865002;28;92805;-81
2022/09/21 03:27:14;;;;;;;2.00;1.80;;;20.80;58.60;;;;;;4898570;28;92983;-81
2022/09/21 03:29:40;;;;;;;2.35;1.63;;;20.80;58.60;;;;;;4922280;28;92384;-81
2022/09/21 03:32:05;;;;;;;2.38;1.80;;;20.80;58.70;;;;;;4922715;28;93658;-81
2022/09/21 03:34:32;;;;;;;2.15;1.50;;;20.80;58.70;;;;;;4924273;28;92062;-81
2022/09/21 03:36:59;;;;;;;2.05;1.77;;;20.80;58.80;;;;;;4958549;28;93716;-81
2022/09/21 03:39:24;;;;;;;2.08;1.70;;;20.80;58.80;;;;;;4961575;28;92270;-81
2022/09/21 03:41:50;;;;;;;2.17;1.73;;;20.80;58.70;;;;;;4958249;28;94413;-81
2022/09/21 03:44:16;;;;;;;1.65;1.50;;;20.70;58.60;;;;;;4960075;28;92804;-82
2022/09/21 03:46:42;;;;;;;2.60;1.60;;;20.80;58.60;;;;;;4961211;28;92112;-82
2022/09/21 03:49:08;;;;;;;2.05;1.52;;;20.70;58.70;;;;;;4961315;28;100605;-81
2022/09/21 03:51:33;;;;;;;1.63;1.20;;;20.80;58.70;;;;;;4959888;28;94952;-81
2022/09/21 03:53:59;;;;;;;2.30;1.80;;;20.70;58.50;;;;;;4964587;28;93800;-81
2022/09/21 03:56:24;;;;;;;2.60;1.70;;;20.80;58.60;;;;;;4958858;28;92613;-81
2022/09/21 03:58:50;;;;;;;2.17;1.65;;;20.80;58.50;;;;;;4960586;28;92482;-81
2022/09/21 04:01:15;;;;;;;2.30;1.90;;;20.80;58.60;;;;;;4959629;28;93676;-82
2022/09/21 04:03:41;;;;;;;2.10;1.73;;;20.80;58.50;;;;;;4962591;28;93233;-81
2022/09/21 04:06:11;;;;;;;2.15;1.40;;;20.80;58.40;;;;;;4959189;28;92280;-82
2022/09/21 04:08:38;;;;;;;1.85;1.70;;;20.80;58.40;;;;;;4933634;28;91486;-81
2022/09/21 04:11:11;;;;;;;2.13;1.42;;;20.80;58.40;;;;;;4923795;28;93678;-82
2022/09/21 04:13:37;;;;;;;1.42;1.30;;;20.70;58.40;;;;;;4923927;28;93891;-81
2022/09/21 04:16:03;;;;;;;2.00;1.60;;;20.70;58.40;;;;;;4922606;28;93005;-81
2022/09/21 04:18:28;;;;;;;3.35;1.70;;;20.70;58.40;;;;;;4922090;28;92605;-81
2022/09/21 04:20:54;;;;;;;2.67;1.92;;;20.80;58.50;;;;;;4923369;28;93405;-81
2022/09/21 04:23:21;;;;;;;2.65;1.63;;;20.70;58.40;;;;;;4921755;28;92726;-81
2022/09/21 04:25:50;;;;;;;2.75;1.75;;;20.70;58.40;;;;;;4952280;28;92744;-81
2022/09/21 04:28:15;;;;;;;2.08;1.50;;;20.80;58.30;;;;;;4922852;28;92851;-81
2022/09/21 04:30:41;;;;;;;2.75;1.83;;;20.70;58.40;;;;;;4922959;28;95291;-81
2022/09/21 04:33:07;;;;;;;2.22;1.60;;;20.70;58.30;;;;;;4921519;28;92231;-81
2022/09/21 04:35:32;;;;;;;2.28;1.60;;;20.80;58.30;;;;;;4924312;28;92962;-81
2022/09/21 04:37:58;;;;;;;2.00;1.80;;;20.80;58.30;;;;;;4922346;28;92327;-81
2022/09/21 04:40:24;;;;;;;2.35;1.80;;;20.70;58.40;;;;;;4923124;28;94171;-81
2022/09/21 04:42:52;;;;;;;1.60;1.50;;;20.80;58.30;;;;;;4924473;28;93727;-81
2022/09/21 04:45:20;;;;;;;1.77;1.50;;;20.80;58.30;;;;;;4925207;28;92667;-81
2022/09/21 04:47:46;;;;;;;1.50;1.30;;;20.80;58.30;;;;;;4923081;28;91976;-81
2022/09/21 04:50:12;;;;;;;2.08;1.52;;;20.70;58.30;;;;;;4924917;28;91951;-81
2022/09/21 04:52:38;;;;;;;2.00;1.52;;;20.70;58.30;;;;;;4922531;28;95753;-82
2022/09/21 04:55:05;;;;;;;2.05;1.58;;;20.70;58.30;;;;;;4923227;28;92607;-81
2022/09/21 04:57:31;;;;;;;2.42;1.75;;;20.70;58.30;;;;;;4923945;28;91822;-81
2022/09/21 04:59:56;;;;;;;2.42;1.65;;;20.70;58.40;;;;;;4924134;28;93447;-82
2022/09/21 05:02:22;;;;;;;2.13;1.77;;;20.70;58.30;;;;;;4921891;28;93378;-81
2022/09/21 05:04:48;;;;;;;1.98;1.80;;;20.70;58.40;;;;;;4923348;28;93822;-81
2022/09/21 05:07:14;;;;;;;2.08;1.67;;;20.70;58.40;;;;;;4922114;28;92463;-81
2022/09/21 05:12:24;;;;;;;1.80;1.60;;;20.70;58.30;;;;;;4924317;28;96976;-81
2022/09/21 05:14:49;;;;;;;2.63;1.70;;;20.70;58.30;;;;;;4922349;28;92485;-81
2022/09/21 05:17:15;;;;;;;2.25;1.60;;;20.70;58.40;;;;;;4921134;28;92096;-81
2022/09/21 05:19:42;;;;;;;2.10;1.50;;;20.70;58.20;;;;;;4954857;28;94283;-81
2022/09/21 05:22:08;;;;;;;1.92;1.48;;;20.70;58.00;;;;;;4922354;28;93776;-82
2022/09/21 05:24:33;;;;;;;2.47;1.85;;;20.70;58.00;;;;;;4926472;28;91978;-81
2022/09/21 05:26:59;;;;;;;2.13;1.60;;;20.70;58.00;;;;;;4921195;28;93298;-81
2022/09/21 05:29:25;;;;;;;1.63;1.50;;;20.70;58.00;;;;;;4920700;28;94491;-81
2022/09/21 05:32:12;;;;;;;1.85;1.40;;;20.70;58.20;;;;;;4925309;28;94262;-82
2022/09/21 05:34:52;;;;;;;2.15;1.60;;;20.70;58.10;;;;;;4920493;28;92071;-81
2022/09/21 05:37:37;;;;;;;2.83;2.15;;;20.70;58.00;;;;;;4923379;28;93154;-81
2022/09/21 05:40:04;;;;;;;1.83;1.50;;;20.70;58.10;;;;;;4921677;28;92290;-81
2022/09/21 05:42:30;;;;;;;2.45;1.70;;;20.70;58.00;;;;;;4923532;28;92837;-81
2022/09/21 05:44:56;;;;;;;2.00;1.70;;;20.70;57.90;;;;;;4921948;28;92090;-81
2022/09/21 05:47:36;;;;;;;1.85;1.55;;;20.70;58.10;;;;;;4919153;28;92714;-82
2022/09/21 05:50:16;;;;;;;2.13;1.60;;;20.70;58.10;;;;;;4953329;28;94901;-82
2022/09/21 05:53:16;;;;;;;1.98;1.58;;;20.70;58.00;;;;;;4922590;28;92776;-81
2022/09/21 05:55:50;;;;;;;2.88;1.90;;;20.70;58.10;;;;;;4923777;28;93673;-81
2022/09/21 05:58:47;;;;;;;1.85;1.50;;;20.70;57.90;;;;;;4921679;28;92323;-81
2022/09/21 06:01:18;;;;;;;1.45;1.35;;;20.70;57.90;;;;;;4920283;28;92701;-81
2022/09/21 06:03:46;;;;;;;1.70;1.45;;;20.70;57.80;;;;;;4921542;28;93480;-82
2022/09/21 06:06:11;;;;;;;2.63;1.60;;;20.70;57.90;;;;;;4920385;28;92623;-81
2022/09/21 06:08:37;;;;;;;1.60;1.50;;;20.70;57.80;;;;;;4922828;28;92433;-81
2022/09/21 06:11:03;;;;;;;2.45;1.63;;;20.70;57.70;;;;;;4952259;28;95533;-81
2022/09/21 06:13:29;;;;;;;1.88;1.67;;;20.70;57.80;;;;;;4922492;28;93378;-81
2022/09/21 06:15:54;;;;;;;1.88;1.50;;;20.70;58.00;;;;;;4921960;28;92919;-81
2022/09/21 06:18:20;;;;;;;1.55;1.10;;;20.70;57.80;;;;;;4923994;28;92352;-81
2022/09/21 06:20:46;;;;;;;2.63;1.50;;;20.70;58.00;;;;;;4920802;28;94223;-81
2022/09/21 06:23:13;;;;;;;2.55;2.08;;;20.70;58.00;;;;;;4921489;28;94160;-82
2022/09/21 06:25:39;;;;;;;2.05;1.70;;;20.70;58.00;;;;;;4922434;28;91907;-81
2022/09/21 06:28:07;;;;;;;2.00;1.63;;;20.70;57.80;;;;;;4921852;28;95600;-81
2022/09/21 06:30:33;;;;;;;1.95;1.55;;;20.70;57.90;;;;;;4921854;28;93366;-81
2022/09/21 06:33:04;;;;;;;2.72;1.65;;;20.70;58.00;;;;;;4922184;28;92224;-81
2022/09/21 06:35:31;;;;;;;1.55;1.45;;;20.70;57.90;;;;;;4924076;28;92088;-81
2022/09/21 06:38:06;;;;;;;1.98;1.55;;;20.70;57.90;;;;;;4919981;28;91720;-81
2022/09/21 06:40:34;;;;;;;2.05;1.70;;;20.70;57.90;;;;;;4921183;28;93699;-81
2022/09/21 06:43:01;;;;;;;2.13;1.65;;;20.70;58.00;;;;;;4924421;28;94834;-81
2022/09/21 06:45:29;;;;;;;2.28;1.50;;;20.70;57.80;;;;;;4925106;28;93751;-81
2022/09/21 06:47:56;;;;;;;1.77;1.40;;;20.70;57.90;;;;;;4923509;28;92200;-81
2022/09/21 06:50:22;;;;;;;2.17;1.50;;;20.70;58.00;;;;;;4927174;28;92563;-81
2022/09/21 06:52:48;;;;;;;3.03;2.15;;;20.70;57.90;;;;;;4924809;28;92444;-82
2022/09/21 06:55:14;;;;;;;1.50;1.40;;;20.70;58.00;;;;;;4927767;28;92551;-81
2022/09/21 06:57:40;;;;;;;1.42;1.30;;;20.70;57.50;;;;;;4926407;28;92821;-81
2022/09/21 07:00:08;;;;;;;2.05;1.40;;;20.70;57.60;;;;;;4928843;28;93295;-82
2022/09/21 07:02:34;;;;;;;2.03;1.60;;;20.70;57.80;;;;;;4927213;28;93525;-82
2022/09/21 07:05:00;;;;;;;1.50;1.40;;;20.70;57.60;;;;;;4926132;28;91938;-82
2022/09/21 07:07:30;;;;;;;3.97;2.00;;;20.70;57.50;;;;;;4926708;28;92687;-81
2022/09/21 07:10:00;;;;;;;2.30;1.75;;;20.80;57.00;;;;;;4924299;28;94723;-82
2022/09/21 07:12:33;;;;;;;2.72;1.90;;;20.70;56.70;;;;;;4928130;28;92530;-82
2022/09/21 07:14:59;;;;;;;6.63;2.35;;;20.60;56.70;;;;;;4925045;28;92646;-80
2022/09/21 07:17:24;;;;;;;3.00;2.40;;;20.60;57.20;;;;;;4925770;28;91945;-81
2022/09/21 07:19:50;;;;;;;5.35;2.17;;;20.50;56.10;;;;;;4931757;28;96004;-81
2022/09/21 07:22:16;;;;;;;4.55;1.90;;;20.50;56.90;;;;;;4956940;28;96638;-80
2022/09/21 07:24:41;;;;;;;3.92;2.20;;;20.60;57.40;;;;;;4925298;28;93405;-81
2022/09/21 07:27:07;;;;;;;3.33;1.98;;;20.60;57.70;;;;;;4924558;28;91473;-80
2022/09/21 07:29:32;;;;;;;8.98;2.13;;;20.60;57.70;;;;;;4928874;28;92650;-81
2022/09/21 07:31:58;;;;;;;5.75;1.95;;;20.60;57.80;;;;;;4924317;28;93319;-81
2022/09/21 07:34:23;;;;;;;5.03;2.10;;;20.60;57.80;;;;;;4926621;28;93382;-80
2022/09/21 07:36:49;;;;;;;3.25;2.08;;;20.60;57.60;;;;;;4921443;28;92238;-79
2022/09/21 07:39:14;;;;;;;5.82;2.08;;;20.60;57.70;;;;;;4954640;28;95894;-79
2022/09/21 07:41:40;;;;;;;3.10;2.33;;;20.70;57.70;;;;;;4923231;28;92792;-79
2022/09/21 07:44:06;;;;;;;3.75;1.77;;;20.70;57.80;;;;;;4924902;28;92318;-79
2022/09/21 07:46:31;;;;;;;3.75;2.22;;;20.70;57.80;;;;;;4925445;28;92643;-79
2022/09/21 07:48:57;;;;;;;7.28;2.55;;;20.70;57.70;;;;;;4932282;28;92762;-80
2022/09/21 07:51:23;;;;;;;4.50;2.28;;;20.70;57.90;;;;;;4922316;28;95169;-78
2022/09/21 07:53:57;;;;;;;4.28;2.08;;;20.70;57.70;;;;;;4922456;28;92528;-82
2022/09/21 07:56:24;;;;;;;2.65;1.80;;;20.70;57.70;;;;;;4924100;28;92735;-80
2022/09/21 07:59:04;;;;;;;4.03;1.98;;;20.60;57.90;;;;;;4922105;28;95856;-80
2022/09/21 08:01:33;;;;;;;3.20;2.30;;;20.60;57.90;;;;;;4952865;28;97769;-79
2022/09/21 08:03:59;;;;;;;2.40;1.90;;;20.60;58.00;;;;;;4956809;28;92484;-80
2022/09/21 08:06:28;;;;;;;4.55;2.38;;;20.60;58.20;;;;;;4896070;28;92710;-80
2022/09/21 08:08:53;;;;;;;2.70;1.75;;;20.60;58.10;;;;;;4947622;28;93022;-80
2022/09/21 08:11:24;;;;;;;6.25;2.10;;;20.60;58.40;;;;;;4922733;28;92394;-81
2022/09/21 08:13:55;;;;;;;2.83;1.75;;;20.60;58.10;;;;;;4924828;28;92085;-79
2022/09/21 08:16:21;;;;;;;1.77;1.65;;;20.60;58.30;;;;;;4956889;28;92041;-79
2022/09/21 08:18:46;;;;;;;2.22;1.90;;;20.60;58.30;;;;;;4925081;28;92922;-80
2022/09/21 08:21:12;;;;;;;8.85;2.38;;;20.60;58.20;;;;;;4954722;28;93670;-79
2022/09/21 08:23:41;;;;;;;8.88;2.88;;;20.60;58.30;;;;;;4921768;28;93494;-79
2022/09/21 08:26:17;;;;;;;2.90;1.88;;;20.60;58.20;;;;;;4925292;28;91969;-79
2022/09/21 08:28:47;;;;;;;8.55;3.20;;;20.60;58.50;;;;;;4919307;28;97703;-79
2022/09/21 08:31:14;;;;;;;34.22;6.85;;;20.60;58.30;;;;;;4921606;28;92621;-79
2022/09/21 08:33:39;;;;;;;33.38;7.80;;;20.60;58.20;;;;;;4922914;28;91998;-79
2022/09/21 08:36:06;;;;;;;34.15;7.63;;;20.60;58.40;;;;;;4951228;28;92297;-79
2022/09/21 08:38:34;;;;;;;30.92;8.00;;;20.60;58.20;;;;;;4921904;28;93091;-79
2022/09/21 08:41:01;;;;;;;33.80;8.90;;;20.60;58.30;;;;;;4905584;28;92913;-79
2022/09/21 08:43:34;;;;;;;35.95;8.73;;;20.60;58.40;;;;;;4935026;28;92002;-80
2022/09/21 08:46:02;;;;;;;40.05;9.57;;;20.60;58.40;;;;;;4920700;28;92076;-79
2022/09/21 08:48:32;;;;;;;42.30;10.23;;;20.60;58.60;;;;;;4918442;28;96323;-78
2022/09/21 08:51:05;;;;;;;36.08;9.90;;;20.60;58.60;;;;;;4919505;28;93363;-79
2022/09/21 08:53:35;;;;;;;35.63;8.98;;;20.60;58.80;;;;;;4922200;28;92221;-78
2022/09/21 08:56:01;;;;;;;46.05;10.65;;;20.60;58.70;;;;;;4921578;28;92047;-79
2022/09/21 08:58:32;;;;;;;39.95;10.15;;;20.60;58.80;;;;;;4920873;28;93480;-80
2022/09/21 09:01:17;;;;;;;28.90;8.30;;;20.60;59.00;;;;;;4922067;28;92059;-79
2022/09/21 09:04:04;;;;;;;31.30;9.02;;;20.70;58.80;;;;;;4921162;28;92317;-79
2022/09/21 09:07:06;;;;;;;38.05;9.00;;;20.70;59.00;;;;;;4923151;28;91675;-80
2022/09/21 09:09:47;;;;;;;33.20;9.30;;;20.70;59.20;;;;;;4921542;28;92224;-83
2022/09/21 09:12:44;;;;;;;29.92;8.73;;;20.70;59.20;;;;;;4922029;28;93404;-80
2022/09/21 09:15:23;;;;;;;29.52;8.65;;;20.80;58.90;;;;;;4918981;28;93396;-80
2022/09/21 09:18:19;;;;;;;28.67;8.75;;;20.80;58.80;;;;;;4922200;28;92375;-80
2022/09/21 09:20:46;;;;;;;28.65;8.77;;;20.80;58.90;;;;;;4924026;28;92850;-80
2022/09/21 09:23:20;;;;;;;26.88;9.32;;;20.70;58.90;;;;;;4921353;28;92326;-80
2022/09/21 09:25:50;;;;;;;32.75;9.35;;;20.80;59.10;;;;;;4919513;28;92486;-80
2022/09/21 09:28:53;;;;;;;33.03;8.65;;;20.70;59.30;;;;;;4919545;28;92177;-79
2022/09/21 09:31:23;;;;;;;29.27;8.00;;;20.70;59.40;;;;;;4921018;28;93225;-79
2022/09/21 09:34:02;;;;;;;28.75;9.27;;;20.70;59.60;;;;;;4922958;28;91322;-80
2022/09/21 09:36:34;;;;;;;31.80;9.07;;;20.70;59.60;;;;;;4922501;28;92367;-80
2022/09/21 09:39:04;;;;;;;29.65;8.35;;;20.70;59.60;;;;;;4921593;28;92344;-80
2022/09/21 09:42:07;;;;;;;27.42;8.35;;;20.80;59.60;;;;;;4919657;28;94561;-80
2022/09/21 09:44:42;;;;;;;22.23;7.90;;;20.80;59.60;;;;;;4932404;28;96692;-80
2022/09/21 09:47:45;;;;;;;32.33;9.82;;;20.80;59.20;;;;;;4918310;28;92160;-80
2022/09/21 09:50:20;;;;;;;34.53;9.30;;;20.80;59.30;;;;;;4877619;28;92827;-80
2022/09/21 09:52:47;;;;;;;22.38;7.60;;;20.80;59.40;;;;;;4875009;28;92728;-80
2022/09/21 09:55:25;;;;;;;26.83;8.43;;;20.70;59.20;;;;;;4861438;28;92477;-80
2022/09/21 09:57:53;;;;;;;25.95;8.02;;;20.70;59.50;;;;;;4879667;28;92134;-80
2022/09/21 10:00:20;;;;;;;26.23;7.47;;;20.70;59.40;;;;;;4878684;28;91837;-79
2022/09/21 10:02:54;;;;;;;30.27;8.90;;;20.70;59.30;;;;;;4880444;28;92929;-80
2022/09/21 10:05:31;;;;;;;23.33;7.50;;;20.70;59.40;;;;;;4877267;28;93039;-80
2022/09/21 10:07:57;;;;;;;27.67;7.82;;;20.70;59.40;;;;;;4871500;28;93058;-80
2022/09/21 10:10:33;;;;;;;22.42;7.15;;;20.70;59.40;;;;;;4880543;28;92007;-80
2022/09/21 10:13:10;;;;;;;24.95;7.68;;;20.70;59.50;;;;;;4881467;28;94397;-80
2022/09/21 10:15:41;;;;;;;25.58;8.10;;;20.70;59.40;;;;;;4881525;28;92146;-80
2022/09/21 10:18:15;;;;;;;23.98;7.75;;;20.70;59.50;;;;;;4867436;28;92192;-80
2022/09/21 10:20:58;;;;;;;19.45;7.30;;;20.70;59.40;;;;;;4877508;28;92149;-80
2022/09/21 10:23:26;;;;;;;23.85;7.68;;;20.80;59.30;;;;;;4882809;28;92993;-81
2022/09/21 10:26:09;;;;;;;22.02;7.25;;;20.80;59.40;;;;;;4894577;28;93215;-80
2022/09/21 10:28:35;;;;;;;28.02;7.80;;;20.90;59.10;;;;;;4904801;28;92163;-79
2022/09/21 10:31:28;;;;;;;22.42;7.38;;;21.00;59.00;;;;;;4907122;28;92522;-80
2022/09/21 10:34:13;;;;;;;22.27;7.22;;;21.10;58.90;;;;;;4905073;28;102914;-80
2022/09/21 10:36:39;;;;;;;30.80;7.65;;;21.20;58.70;;;;;;4918421;28;93932;-80
2022/09/21 10:39:10;;;;;;;26.92;8.30;;;21.30;58.60;;;;;;4886909;28;100317;-79
2022/09/21 10:41:37;;;;;;;27.23;7.65;;;21.40;58.60;;;;;;4920038;28;92173;-79
2022/09/21 10:44:03;;;;;;;31.30;7.15;;;21.40;58.70;;;;;;4920800;28;93077;-79
2022/09/21 10:46:33;;;;;;;25.70;7.53;;;21.40;58.70;;;;;;4922045;28;92543;-79
2022/09/21 10:49:01;;;;;;;22.27;7.05;;;21.50;58.80;;;;;;4923313;28;92828;-79
2022/09/21 10:51:29;;;;;;;23.70;7.20;;;21.50;58.90;;;;;;4924351;28;92396;-80
2022/09/21 10:53:56;;;;;;;24.35;7.10;;;21.50;58.90;;;;;;4921728;28;100213;-80
2022/09/21 10:56:22;;;;;;;21.40;7.13;;;21.50;59.00;;;;;;4946010;28;96282;-81
2022/09/21 10:59:18;;;;;;;21.23;6.97;;;21.50;59.40;;;;;;4943178;28;93181;-81
2022/09/21 11:01:47;;;;;;;26.73;7.22;;;21.50;59.80;;;;;;4923569;28;92070;-80
2022/09/21 11:04:25;;;;;;;23.88;6.93;;;21.60;59.80;;;;;;4942740;28;93552;-79
2022/09/21 11:07:02;;;;;;;22.63;6.65;;;21.60;59.90;;;;;;4944558;28;96598;-80
2022/09/21 11:09:42;;;;;;;26.55;7.25;;;21.60;59.80;;;;;;4940216;28;92561;-81
2022/09/21 11:12:28;;;;;;;22.65;7.15;;;21.60;60.80;;;;;;4923972;28;92228;-80
2022/09/21 11:15:03;;;;;;;27.45;7.75;;;21.50;60.00;;;;;;4925280;28;93257;-81
2022/09/21 11:17:51;;;;;;;18.42;6.28;;;21.60;59.60;;;;;;4928040;28;92274;-80
2022/09/21 11:21:00;;;;;;;23.42;6.82;;;21.60;59.50;;;;;;4928504;28;92643;-81
2022/09/21 11:23:44;;;;;;;24.55;8.07;;;21.60;59.20;;;;;;4934909;28;92429;-80
2022/09/21 11:26:33;;;;;;;22.23;6.68;;;21.60;59.20;;;;;;4933375;28;94277;-81
2022/09/21 11:29:14;;;;;;;22.35;7.05;;;21.70;58.50;;;;;;4931007;28;94069;-82
2022/09/21 11:31:54;;;;;;;22.05;6.43;;;21.70;57.30;;;;;;4935451;28;92239;-81
2022/09/21 11:34:31;;;;;;;21.20;6.28;;;21.70;58.60;;;;;;4934647;28;92486;-81
2022/09/21 11:37:18;;;;;;;19.90;6.50;;;21.70;58.10;;;;;;4934427;28;93822;-80
2022/09/21 11:39:58;;;;;;;22.60;6.38;;;21.80;58.10;;;;;;4935040;28;97555;-81
2022/09/21 11:43:06;;;;;;;19.50;6.38;;;21.80;58.10;;;;;;4933311;28;92010;-81
2022/09/21 11:45:59;;;;;;;29.35;6.38;;;21.80;57.90;;;;;;4934122;28;91809;-81
2022/09/21 11:48:33;;;;;;;17.08;5.78;;;21.80;57.90;;;;;;4934782;28;94859;-80
2022/09/21 11:51:11;;;;;;;22.05;7.05;;;21.80;58.20;;;;;;4932953;28;93863;-80
2022/09/21 11:53:58;;;;;;;19.98;6.60;;;21.70;58.20;;;;;;4929555;28;93057;-81
2022/09/21 11:56:44;;;;;;;21.73;6.13;;;21.80;58.10;;;;;;4924894;28;92422;-80
2022/09/21 11:59:18;;;;;;;18.10;5.80;;;21.80;58.00;;;;;;4955638;28;94966;-80
2022/09/21 12:02:25;;;;;;;16.75;5.68;;;21.80;58.30;;;;;;4925326;28;93443;-80
2022/09/21 12:04:57;;;;;;;18.80;5.82;;;21.80;58.70;;;;;;4949012;28;92443;-81
2022/09/21 12:07:29;;;;;;;22.95;6.95;;;21.80;58.80;;;;;;4917090;28;92469;-79
2022/09/21 12:10:11;;;;;;;23.55;6.15;;;21.80;58.80;;;;;;4926135;28;92732;-80
2022/09/21 12:12:52;;;;;;;24.08;6.00;;;21.80;58.80;;;;;;4927422;28;92846;-80
2022/09/21 12:15:33;;;;;;;21.30;5.72;;;21.80;58.90;;;;;;4927643;28;92628;-81
2022/09/21 12:18:10;;;;;;;15.40;5.70;;;21.90;59.00;;;;;;4928432;28;93155;-81
2022/09/21 12:21:11;;;;;;;15.35;5.05;;;21.90;58.90;;;;;;4926405;28;94644;-82
2022/09/21 12:23:52;;;;;;;15.45;5.10;;;21.90;59.00;;;;;;4937262;28;92863;-81
2022/09/21 12:26:23;;;;;;;17.67;5.88;;;21.90;58.80;;;;;;4932930;28;92485;-81
2022/09/21 12:28:57;;;;;;;19.63;5.80;;;21.90;58.90;;;;;;4957649;28;92150;-81
2022/09/21 12:31:29;;;;;;;17.92;5.50;;;21.90;58.80;;;;;;4925292;28;92399;-82
2022/09/21 12:33:57;;;;;;;16.00;4.18;;;21.90;58.50;;;;;;4924172;28;93692;-81
2022/09/21 12:36:39;;;;;;;14.18;4.85;;;22.00;58.60;;;;;;4923961;28;92348;-82
2022/09/21 12:39:23;;;;;;;11.02;4.07;;;22.00;58.20;;;;;;4939036;28;92529;-81
2022/09/21 12:42:04;;;;;;;12.40;4.00;;;21.90;58.00;;;;;;4924337;28;93204;-82
2022/09/21 12:44:53;;;;;;;10.77;4.03;;;21.90;57.90;;;;;;4924408;28;93076;-82
2022/09/21 12:47:28;;;;;;;10.10;3.78;;;21.90;57.60;;;;;;4920581;28;93478;-82
2022/09/21 12:50:01;;;;;;;12.10;3.92;;;21.90;57.60;;;;;;4923727;28;92620;-82
2022/09/21 12:52:27;;;;;;;10.93;4.30;;;21.90;57.50;;;;;;4923076;28;94309;-83
2022/09/21 12:54:53;;;;;;;21.10;6.22;;;21.90;57.30;;;;;;4925878;28;92490;-81
2022/09/21 12:57:50;;;;;;;15.40;5.18;;;21.80;57.40;;;;;;4925550;28;92574;-81
2022/09/21 13:00:19;;;;;;;26.67;7.50;;;21.90;57.20;;;;;;4921680;28;92380;-82
2022/09/21 13:03:06;;;;;;;24.33;7.93;;;22.00;57.10;;;;;;4922401;28;92792;-82
2022/09/21 13:06:14;;;;;;;26.15;7.57;;;22.00;57.40;;;;;;4923229;28;92545;-82
2022/09/21 13:08:45;;;;;;;39.67;8.43;;;22.00;57.70;;;;;;4922528;28;92242;-82
2022/09/21 13:11:11;;;;;;;28.85;8.80;;;22.10;58.20;;;;;;4922478;28;92168;-80
2022/09/21 13:13:50;;;;;;;26.75;8.02;;;22.10;58.40;;;;;;4913198;28;95043;-82